Time;durP1;ratioP1;P1;durP2;ratioP2;P2;SDS_P1;SDS_P2;PMS_P1;PMS_P2;Temp;Humidity;BMP_temperature;BMP_pressure;BME280_temperature;BME280_humidity;BME280_pressure;Samples;Min_cycle;Max_cycle;Signal;HPM_P1;HPM_P2
2023/07/05 00:01:00;;;;;;;9.85;4.50;;;;;;;17.69;100.00;98685.25;4484556;32;20092;-65
2023/07/05 00:03:28;;;;;;;10.68;4.65;;;;;;;17.68;100.00;98686.25;4484437;32;20093;-65
2023/07/05 00:06:02;;;;;;;7.90;4.37;;;;;;;17.70;100.00;98681.59;4484429;31;20096;-65
2023/07/05 00:08:32;;;;;;;9.20;4.72;;;;;;;17.62;100.00;98684.34;4484495;31;20176;-65
2023/07/05 00:11:03;;;;;;;7.50;4.45;;;;;;;17.64;100.00;98679.66;4484189;31;20156;-65
2023/07/05 00:13:32;;;;;;;7.60;4.20;;;;;;;17.68;100.00;98688.91;4484921;31;20092;-65
2023/07/05 00:16:00;;;;;;;8.98;4.25;;;;;;;17.56;100.00;98684.09;4486262;31;20779;-65
2023/07/05 00:18:28;;;;;;;8.25;4.62;;;;;;;17.47;100.00;98681.69;4486363;31;20126;-65
2023/07/05 00:21:04;;;;;;;7.53;4.57;;;;;;;17.42;100.00;98682.25;4486112;31;20119;-65
2023/07/05 00:23:36;;;;;;;10.15;5.00;;;;;;;17.39;100.00;98679.97;4486453;31;20143;-65
2023/07/05 00:26:06;;;;;;;9.80;4.37;;;;;;;17.35;100.00;98673.41;4486165;31;20104;-65
2023/07/05 00:28:33;;;;;;;7.68;4.45;;;;;;;17.31;100.00;98667.66;4486228;31;20096;-65
2023/07/05 00:31:02;;;;;;;6.55;4.37;;;;;;;17.30;100.00;98666.00;4486070;31;20092;-65
2023/07/05 00:33:34;;;;;;;12.93;5.85;;;;;;;17.34;100.00;98672.56;4486519;31;20092;-65
2023/07/05 00:36:01;;;;;;;6.43;3.95;;;;;;;17.38;100.00;98675.66;4486218;31;20527;-65
2023/07/05 00:38:28;;;;;;;6.62;4.03;;;;;;;17.36;100.00;98667.91;4486051;32;20124;-65
2023/07/05 00:40:56;;;;;;;8.35;4.93;;;;;;;17.32;100.00;98671.12;4485963;32;20122;-65
2023/07/05 00:43:24;;;;;;;11.88;4.60;;;;;;;17.23;100.00;98677.50;4486100;32;20552;-65
2023/07/05 00:46:00;;;;;;;8.15;4.05;;;;;;;17.13;100.00;98675.94;4486201;31;20116;-65
2023/07/05 00:49:04;;;;;;;7.25;4.40;;;;;;;17.07;100.00;98671.38;4486069;31;20138;-65
2023/07/05 00:51:46;;;;;;;8.77;4.40;;;;;;;17.06;100.00;98672.38;4421246;32;20101;-65
2023/07/05 00:54:16;;;;;;;7.30;4.57;;;;;;;17.11;100.00;98677.97;4421662;32;20169;-65
2023/07/05 00:56:49;;;;;;;6.37;4.35;;;;;;;17.13;100.00;98672.50;4408846;32;20105;-65
2023/07/05 00:59:17;;;;;;;7.57;4.20;;;;;;;17.11;100.00;98671.84;4421519;32;20149;-65
2023/07/05 01:01:46;;;;;;;7.95;3.85;;;;;;;17.10;100.00;98678.16;4421452;32;20835;-65
2023/07/05 01:04:33;;;;;;;7.68;4.22;;;;;;;17.06;100.00;98675.03;4410632;32;20118;-65
2023/07/05 01:07:01;;;;;;;7.80;4.70;;;;;;;17.10;100.00;98676.31;4409081;32;20194;-65
2023/07/05 01:09:29;;;;;;;8.82;4.60;;;;;;;17.12;100.00;98674.31;4421512;32;20110;-65
2023/07/05 01:12:10;;;;;;;8.40;4.03;;;;;;;17.15;100.00;98667.84;4421177;32;20128;-65
2023/07/05 01:14:47;;;;;;;8.68;4.47;;;;;;;17.12;100.00;98663.75;4408869;32;20097;-65
2023/07/05 01:17:18;;;;;;;6.55;4.20;;;;;;;17.10;100.00;98668.38;4421267;32;20622;-65
2023/07/05 01:19:48;;;;;;;8.93;4.57;;;;;;;17.03;100.00;98673.59;4421778;32;20125;-65
2023/07/05 01:22:44;;;;;;;6.78;4.10;;;;;;;17.03;100.00;98667.44;4421369;32;20106;-65
2023/07/05 01:25:32;;;;;;;8.98;4.10;;;;;;;17.07;100.00;98662.63;4442994;32;20122;-65
2023/07/05 01:28:23;;;;;;;6.95;3.72;;;;;;;17.06;100.00;98664.44;4485852;32;20112;-65
2023/07/05 01:31:08;;;;;;;10.68;4.50;;;;;;;17.06;100.00;98658.34;4485678;31;20101;-65
2023/07/05 01:33:40;;;;;;;6.93;4.20;;;;;;;17.14;100.00;98656.44;4485838;32;20096;-65
2023/07/05 01:36:08;;;;;;;7.28;4.37;;;;;;;17.18;100.00;98649.78;4486078;31;20107;-65
2023/07/05 01:38:36;;;;;;;7.82;4.30;;;;;;;17.28;100.00;98654.78;4471800;32;20533;-65
2023/07/05 01:41:06;;;;;;;6.15;4.12;;;;;;;17.27;100.00;98660.25;4485414;31;20089;-65
2023/07/05 01:43:37;;;;;;;8.80;4.62;;;;;;;17.18;100.00;98663.00;4485766;31;20096;-65
2023/07/05 01:46:20;;;;;;;7.20;4.30;;;;;;;17.11;100.00;98661.25;4485680;32;20457;-65
2023/07/05 01:49:08;;;;;;;8.02;4.47;;;;;;;17.06;100.00;98653.84;4485585;31;20118;-65
2023/07/05 01:51:46;;;;;;;9.32;4.78;;;;;;;16.97;100.00;98654.94;4485644;31;20088;-65
2023/07/05 01:54:32;;;;;;;7.87;5.03;;;;;;;16.90;100.00;98659.34;4484711;32;20104;-65
2023/07/05 01:57:05;;;;;;;9.43;4.80;;;;;;;16.94;100.00;98657.94;4485530;31;20110;-65
2023/07/05 01:59:39;;;;;;;9.88;4.85;;;;;;;16.98;100.00;98651.31;4485900;32;20084;-65
2023/07/05 02:02:08;;;;;;;8.85;4.28;;;;;;;17.06;100.00;98647.75;4484302;32;20108;-65
2023/07/05 02:04:37;;;;;;;8.10;4.37;;;;;;;16.90;100.00;98654.84;4484579;32;20116;-65
2023/07/05 02:07:06;;;;;;;9.20;4.47;;;;;;;16.94;100.00;98650.00;4484419;32;20145;-65
2023/07/05 02:09:38;;;;;;;7.97;4.62;;;;;;;16.96;100.00;98645.37;4484321;32;20133;-65
2023/07/05 02:12:07;;;;;;;9.13;5.23;;;;;;;16.95;100.00;98649.84;4485291;32;20092;-65
2023/07/05 02:14:38;;;;;;;10.18;5.18;;;;;;;16.84;100.00;98645.78;4485541;32;20108;-65
2023/07/05 02:17:06;;;;;;;8.55;4.68;;;;;;;16.85;100.00;98652.72;4485204;31;20163;-65
2023/07/05 02:19:36;;;;;;;11.70;5.70;;;;;;;16.87;100.00;98649.94;4485413;32;20118;-65
2023/07/05 02:22:06;;;;;;;13.18;5.70;;;;;;;16.88;100.00;98648.09;4485310;31;20101;-65
2023/07/05 02:24:33;;;;;;;8.55;5.57;;;;;;;16.91;100.00;98650.38;4485470;31;20123;-65
2023/07/05 02:27:02;;;;;;;11.25;6.15;;;;;;;16.98;100.00;98651.31;4485491;31;20151;-65
2023/07/05 02:29:30;;;;;;;13.65;6.03;;;;;;;17.05;100.00;98644.28;4485235;31;20092;-65
2023/07/05 02:31:58;;;;;;;9.73;6.00;;;;;;;17.12;100.00;98647.03;4485325;31;20130;-65
2023/07/05 02:34:26;;;;;;;11.73;6.05;;;;;;;17.10;100.00;98641.91;4485323;31;20492;-65
2023/07/05 02:36:55;;;;;;;10.63;5.62;;;;;;;17.09;100.00;98642.91;4485346;31;20191;-65
2023/07/05 02:39:23;;;;;;;12.52;6.00;;;;;;;17.04;100.00;98642.63;4485328;32;20118;-65
2023/07/05 02:41:50;;;;;;;9.15;5.40;;;;;;;17.02;100.00;98639.38;4485215;32;20204;-65
2023/07/05 02:44:18;;;;;;;17.37;6.80;;;;;;;17.01;100.00;98641.16;4485506;31;20097;-65
2023/07/05 02:46:46;;;;;;;11.40;6.35;;;;;;;17.05;100.00;98646.94;4485138;31;20465;-65
2023/07/05 02:49:15;;;;;;;14.68;7.07;;;;;;;17.08;100.00;98646.56;4485151;31;20084;-65
2023/07/05 02:51:43;;;;;;;12.80;6.90;;;;;;;17.10;100.00;98646.38;4485312;31;20162;-65
2023/07/05 02:54:11;;;;;;;13.65;6.53;;;;;;;17.03;100.00;98633.03;4485183;31;20100;-65
2023/07/05 02:56:39;;;;;;;11.32;6.43;;;;;;;17.00;100.00;98638.69;4485389;31;20189;-65
2023/07/05 02:59:06;;;;;;;18.08;7.80;;;;;;;17.09;100.00;98648.19;4485067;31;20096;-65
2023/07/05 03:01:34;;;;;;;11.43;6.82;;;;;;;17.11;100.00;98646.22;4485480;31;20093;-65
2023/07/05 03:04:02;;;;;;;13.13;7.85;;;;;;;17.20;100.00;98645.09;4485433;32;20104;-65
2023/07/05 03:06:30;;;;;;;14.10;7.97;;;;;;;17.27;100.00;98647.03;4485569;31;20152;-65
2023/07/05 03:08:58;;;;;;;14.25;8.60;;;;;;;17.29;100.00;98637.06;4485409;31;20076;-65
2023/07/05 03:11:26;;;;;;;17.40;8.75;;;;;;;17.30;100.00;98650.13;4485043;31;20157;-65
2023/07/05 03:13:54;;;;;;;19.45;7.68;;;;;;;17.38;100.00;98647.38;4485046;31;20116;-65
2023/07/05 03:16:22;;;;;;;13.98;8.20;;;;;;;17.40;100.00;98647.19;4485273;32;20104;-65
2023/07/05 03:18:49;;;;;;;17.05;8.18;;;;;;;17.41;100.00;98646.19;4485081;31;20107;-65
2023/07/05 03:21:17;;;;;;;15.25;7.80;;;;;;;17.49;100.00;98647.94;4485441;31;20773;-65
2023/07/05 03:23:45;;;;;;;15.70;8.18;;;;;;;17.56;100.00;98646.16;4485252;32;20155;-65
2023/07/05 03:26:13;;;;;;;16.65;8.63;;;;;;;17.60;100.00;98647.44;4485191;32;20614;-65
2023/07/05 03:28:41;;;;;;;13.77;9.07;;;;;;;17.77;100.00;98647.22;4484791;32;20122;-65
2023/07/05 03:31:13;;;;;;;16.20;8.63;;;;;;;17.89;100.00;98638.63;4485282;32;20115;-65
2023/07/05 03:33:42;;;;;;;16.37;8.18;;;;;;;17.98;100.00;98641.16;4485093;31;20168;-65
2023/07/05 03:36:13;;;;;;;16.23;8.25;;;;;;;18.11;100.00;98636.00;4485070;31;20552;-65
2023/07/05 03:38:40;;;;;;;20.27;9.50;;;;;;;18.17;100.00;98645.84;4484831;31;20442;-65
2023/07/05 03:41:14;;;;;;;16.02;8.20;;;;;;;18.27;100.00;98646.38;4484834;31;20471;-65
2023/07/05 03:43:43;;;;;;;;;;;;;;;18.36;100.00;98643.56;4485055;31;20088;-65
2023/07/05 03:46:13;;;;;;;20.00;7.07;;;;;;;18.46;100.00;98645.91;4484961;32;19979;-65
2023/07/05 03:48:44;;;;;;;15.15;8.48;;;;;;;18.49;100.00;98642.88;4484068;31;20147;-66
2023/07/05 03:51:13;;;;;;;16.83;7.95;;;;;;;18.65;100.00;98657.69;4484885;32;20136;-66
2023/07/05 03:53:41;;;;;;;16.33;7.90;;;;;;;18.71;100.00;98656.91;4484722;31;20080;-66
2023/07/05 03:56:10;;;;;;;15.27;8.48;;;;;;;18.74;100.00;98661.84;4484919;31;20152;-66
2023/07/05 03:58:38;;;;;;;15.32;7.53;;;;;;;18.82;100.00;98651.09;4492230;31;20122;-65
2023/07/05 04:01:14;;;;;;;15.00;7.70;;;;;;;18.90;100.00;98664.25;4484680;31;20100;-66
2023/07/05 04:03:43;;;;;;;13.43;7.62;;;;;;;18.97;100.00;98654.50;4484519;31;20529;-67
2023/07/05 04:06:11;;;;;;;15.43;7.15;;;;;;;19.07;100.00;98651.47;4490959;31;20096;-67
2023/07/05 04:08:42;;;;;;;19.05;6.93;;;;;;;19.19;100.00;98653.59;4498458;31;20122;-67
2023/07/05 04:11:12;;;;;;;15.98;8.05;;;;;;;19.27;100.00;98656.94;4500162;31;20107;-68
2023/07/05 04:13:40;;;;;;;14.60;7.65;;;;;;;19.44;100.00;98656.56;4493390;31;20088;-67
2023/07/05 04:16:11;;;;;;;14.02;7.43;;;;;;;19.52;100.00;98659.09;4484189;32;20104;-67
2023/07/05 04:18:39;;;;;;;12.50;6.75;;;;;;;19.59;100.00;98654.63;4485343;31;20103;-67
2023/07/05 04:21:07;;;;;;;15.77;7.68;;;;;;;19.63;100.00;98655.84;4484250;31;20150;-67
2023/07/05 04:23:35;;;;;;;14.52;7.82;;;;;;;19.77;100.00;98662.09;4473062;31;20112;-67
2023/07/05 04:26:04;;;;;;;17.15;7.37;;;;;;;19.93;100.00;98662.75;4492785;31;20095;-68
2023/07/05 04:28:33;;;;;;;15.77;7.82;;;;;;;20.05;100.00;98666.47;4483996;31;20080;-67
2023/07/05 04:31:01;;;;;;;13.38;7.35;;;;;;;20.19;100.00;98669.97;4484022;31;20097;-68
2023/07/05 04:33:29;;;;;;;15.80;7.57;;;;;;;20.32;100.00;98669.97;4484149;31;20096;-68
2023/07/05 04:35:59;;;;;;;14.68;7.85;;;;;;;20.51;100.00;98675.53;4484003;31;20137;-68
2023/07/05 04:38:27;;;;;;;14.75;7.80;;;;;;;20.62;100.00;98676.75;4484200;31;20514;-68
2023/07/05 04:40:56;;;;;;;19.67;7.78;;;;;;;20.69;100.00;98670.44;4483884;31;20390;-67
2023/07/05 04:43:25;;;;;;;16.90;7.43;;;;;;;20.79;100.00;98670.03;4483831;31;20096;-68
2023/07/05 04:45:54;;;;;;;14.27;7.22;;;;;;;20.78;100.00;98673.72;4483936;31;20089;-67
2023/07/05 04:48:24;;;;;;;13.23;7.78;;;;;;;21.05;100.00;98674.50;4485611;31;20144;-67
2023/07/05 04:50:52;;;;;;;15.65;7.93;;;;;;;21.17;100.00;98684.53;4484653;31;20100;-68
2023/07/05 04:53:22;;;;;;;12.95;7.40;;;;;;;21.38;100.00;98684.28;4499306;31;20161;-68
2023/07/05 04:55:52;;;;;;;13.68;7.10;;;;;;;21.52;100.00;98689.59;4485243;31;20416;-67
2023/07/05 04:58:21;;;;;;;11.52;6.68;;;;;;;21.71;100.00;98688.72;4482551;32;20164;-68
2023/07/05 05:00:49;;;;;;;13.73;6.80;;;;;;;21.94;100.00;98687.38;4489108;31;20100;-67
2023/07/05 05:03:22;;;;;;;11.20;6.93;;;;;;;22.22;100.00;98684.34;4501834;31;20116;-68
2023/07/05 05:05:53;;;;;;;12.68;6.53;;;;;;;22.40;100.00;98686.31;4470511;32;20111;-67
2023/07/05 05:08:23;;;;;;;11.25;6.40;;;;;;;22.53;100.00;98688.09;4474797;31;20123;-67
2023/07/05 05:10:52;;;;;;;15.52;6.95;;;;;;;22.60;100.00;98680.00;4496462;31;20465;-68
2023/07/05 05:13:22;;;;;;;12.05;5.93;;;;;;;22.71;100.00;98682.00;4497032;31;20104;-68
2023/07/05 05:15:50;;;;;;;11.70;6.55;;;;;;;22.81;100.00;98679.62;4485894;31;20127;-68
2023/07/05 05:18:18;;;;;;;10.25;6.50;;;;;;;22.85;100.00;98680.03;4470171;32;20097;-67
2023/07/05 05:20:46;;;;;;;11.15;6.30;;;;;;;22.63;100.00;98684.91;4470215;32;20120;-67
2023/07/05 05:23:14;;;;;;;17.67;6.80;;;;;;;22.66;100.00;98689.81;4470274;32;20438;-67
2023/07/05 05:25:42;;;;;;;11.15;6.28;;;;;;;23.03;100.00;98689.94;4496194;31;20114;-67
2023/07/05 05:28:11;;;;;;;16.48;7.43;;;;;;;23.12;100.00;98690.47;4494865;31;20458;-67
2023/07/05 05:30:45;;;;;;;12.80;6.40;;;;;;;23.19;100.00;98685.88;4500317;31;20085;-67
2023/07/05 05:33:15;;;;;;;8.98;6.00;;;;;;;23.05;100.00;98690.50;4500193;31;20529;-67
2023/07/05 05:35:46;;;;;;;14.05;6.12;;;;;;;23.27;100.00;98690.97;4501186;31;20091;-67
2023/07/05 05:38:16;;;;;;;16.48;6.35;;;;;;;23.48;100.00;98687.03;4491843;31;20097;-67
2023/07/05 05:40:45;;;;;;;10.90;6.25;;;;;;;23.60;100.00;98686.25;4496888;31;20213;-67
2023/07/05 05:43:13;;;;;;;11.30;6.12;;;;;;;23.74;100.00;98693.09;4489773;31;20115;-67
2023/07/05 05:45:42;;;;;;;10.65;6.10;;;;;;;23.87;100.00;98684.09;4498200;31;20095;-67
2023/07/05 05:48:10;;;;;;;13.27;6.05;;;;;;;24.03;100.00;98685.34;4485536;31;20519;-67
2023/07/05 05:50:38;;;;;;;9.82;5.70;;;;;;;24.10;100.00;98691.41;4492558;31;20161;-67
2023/07/05 05:53:06;;;;;;;10.50;6.40;;;;;;;23.99;100.00;98687.66;4485428;31;20481;-67
2023/07/05 05:55:36;;;;;;;10.43;5.93;;;;;;;23.89;100.00;98690.03;4485637;31;20087;-68
2023/07/05 05:58:05;;;;;;;12.45;5.55;;;;;;;23.97;100.00;98688.91;4487210;31;20108;-67
2023/07/05 06:00:33;;;;;;;13.50;6.43;;;;;;;24.10;100.00;98688.72;4477094;31;20150;-67
2023/07/05 06:03:03;;;;;;;11.10;6.22;;;;;;;24.16;100.00;98682.47;4480015;31;20484;-67
2023/07/05 06:05:34;;;;;;;11.45;5.75;;;;;;;24.24;100.00;98682.16;4477763;31;20096;-67
2023/07/05 06:08:02;;;;;;;12.73;6.18;;;;;;;24.30;100.00;98683.13;4483557;31;20089;-67
2023/07/05 06:10:30;;;;;;;11.25;5.60;;;;;;;24.40;100.00;98685.22;4480526;31;20096;-68
2023/07/05 06:12:57;;;;;;;11.82;5.70;;;;;;;24.65;100.00;98681.56;4480011;31;20114;-67
2023/07/05 06:15:25;;;;;;;10.57;5.85;;;;;;;24.70;100.00;98681.72;4481905;31;20119;-67
2023/07/05 06:17:53;;;;;;;10.80;6.07;;;;;;;24.70;97.25;98679.84;4484081;31;20696;-67
2023/07/05 06:20:23;;;;;;;10.48;5.85;;;;;;;24.66;96.22;98675.16;4482679;31;20810;-67
2023/07/05 06:22:50;;;;;;;14.38;5.78;;;;;;;24.65;96.62;98678.88;4483377;31;20104;-67
2023/07/05 06:25:17;;;;;;;9.43;5.65;;;;;;;24.79;97.57;98683.00;4480461;31;20167;-67
2023/07/05 06:27:45;;;;;;;16.42;5.68;;;;;;;24.93;97.65;98681.69;4483651;31;20088;-67
2023/07/05 06:30:13;;;;;;;10.15;6.35;;;;;;;24.85;97.82;98683.94;4481929;31;20937;-67
2023/07/05 06:32:40;;;;;;;13.60;6.45;;;;;;;24.91;97.02;98683.81;4484053;31;20157;-67
2023/07/05 06:35:09;;;;;;;9.13;5.90;;;;;;;24.95;95.07;98676.94;4480705;31;20633;-67
2023/07/05 06:37:37;;;;;;;7.55;5.18;;;;;;;24.96;94.33;98675.87;4480125;31;20096;-67
2023/07/05 06:40:05;;;;;;;8.48;5.32;;;;;;;25.15;95.57;98673.09;4483935;31;20157;-67
2023/07/05 06:42:33;;;;;;;12.20;5.53;;;;;;;25.28;96.76;98677.38;4482697;31;20159;-67
2023/07/05 06:45:01;;;;;;;7.82;5.30;;;;;;;25.36;96.86;98679.75;4478615;31;20127;-67
2023/07/05 06:47:29;;;;;;;11.20;5.82;;;;;;;25.43;93.82;98679.59;4481506;31;20092;-67
2023/07/05 06:49:57;;;;;;;9.93;5.25;;;;;;;25.35;95.70;98677.31;4480047;31;20159;-67
2023/07/05 06:52:24;;;;;;;9.48;5.30;;;;;;;25.46;91.14;98674.56;4483779;31;20103;-67
2023/07/05 06:54:52;;;;;;;11.30;5.35;;;;;;;25.52;92.06;98672.81;4482593;32;20118;-68
2023/07/05 06:57:21;;;;;;;12.68;5.50;;;;;;;25.68;94.85;98672.06;4483234;31;20096;-67
2023/07/05 06:59:48;;;;;;;7.80;5.55;;;;;;;25.53;92.20;98669.09;4480934;32;20120;-67
2023/07/05 07:02:16;;;;;;;10.95;5.75;;;;;;;25.45;89.13;98674.81;4483687;31;20484;-68
2023/07/05 07:04:43;;;;;;;9.20;5.75;;;;;;;25.49;91.48;98671.41;4482926;31;20096;-67
2023/07/05 07:07:11;;;;;;;12.27;5.85;;;;;;;25.65;86.92;98675.22;4483411;31;20604;-67
2023/07/05 07:09:40;;;;;;;12.50;6.07;;;;;;;25.77;90.40;98672.53;4479883;31;20105;-68
2023/07/05 07:12:09;;;;;;;9.55;6.03;;;;;;;25.86;92.61;98671.09;4479916;31;20598;-68
2023/07/05 07:14:38;;;;;;;12.07;5.55;;;;;;;26.06;90.37;98672.56;4482050;31;20181;-67
2023/07/05 07:17:06;;;;;;;11.35;5.72;;;;;;;25.90;86.63;98671.41;4482849;31;20097;-67
2023/07/05 07:19:33;;;;;;;13.13;6.68;;;;;;;25.63;93.44;98674.66;4482269;31;20156;-67
2023/07/05 07:22:00;;;;;;;11.32;6.20;;;;;;;26.11;91.84;98678.00;4481519;31;20138;-67
2023/07/05 07:24:29;;;;;;;12.65;6.85;;;;;;;26.39;87.87;98677.16;4482027;31;20128;-67
2023/07/05 07:26:57;;;;;;;10.25;5.80;;;;;;;26.65;85.55;98674.91;4484896;31;20097;-68
2023/07/05 07:29:26;;;;;;;8.40;5.43;;;;;;;26.50;84.22;98677.34;4482881;31;20096;-68
2023/07/05 07:31:53;;;;;;;11.05;5.37;;;;;;;26.62;85.44;98672.69;4482467;31;20088;-68
2023/07/05 07:34:21;;;;;;;11.23;5.37;;;;;;;26.68;82.79;98671.75;4482016;31;20618;-68
2023/07/05 07:36:49;;;;;;;9.25;5.25;;;;;;;26.34;77.93;98674.41;4482872;31;20124;-67
2023/07/05 07:39:17;;;;;;;10.60;5.30;;;;;;;26.45;83.37;98674.53;4482479;31;20522;-67
2023/07/05 07:41:44;;;;;;;10.90;5.15;;;;;;;26.26;84.04;98665.91;4483613;31;20137;-67
2023/07/05 07:44:11;;;;;;;11.80;5.68;;;;;;;26.05;84.71;98668.22;4481653;31;20119;-67
2023/07/05 07:46:40;;;;;;;12.05;4.95;;;;;;;26.27;81.96;98665.69;4481717;31;20520;-67
2023/07/05 07:49:09;;;;;;;9.30;4.70;;;;;;;26.08;81.40;98664.25;4481920;31;20100;-67
2023/07/05 07:51:38;;;;;;;11.52;5.07;;;;;;;26.12;80.11;98663.53;4481773;31;20153;-67
2023/07/05 07:54:11;;;;;;;12.32;5.22;;;;;;;26.10;77.71;98664.81;4481652;32;20091;-67
2023/07/05 07:56:41;;;;;;;10.63;5.10;;;;;;;26.06;78.32;98669.03;4481278;31;20161;-67
2023/07/05 07:59:10;;;;;;;8.68;4.87;;;;;;;26.34;81.95;98663.66;4482820;31;20134;-67
2023/07/05 08:01:39;;;;;;;10.55;5.35;;;;;;;26.36;77.80;98664.22;4482020;31;20139;-67
2023/07/05 08:04:09;;;;;;;8.45;5.57;;;;;;;26.18;77.16;98667.13;4482040;31;20092;-67
2023/07/05 08:06:40;;;;;;;8.98;4.70;;;;;;;26.34;79.89;98671.72;4480353;31;20096;-67
2023/07/05 08:09:11;;;;;;;9.27;5.12;;;;;;;26.47;80.74;98673.25;4481624;31;20183;-67
2023/07/05 08:11:39;;;;;;;7.87;4.85;;;;;;;26.81;82.41;98677.84;4484236;31;20490;-67
2023/07/05 08:14:08;;;;;;;7.82;4.82;;;;;;;27.11;78.50;98674.78;4481038;31;20107;-67
2023/07/05 08:16:36;;;;;;;10.13;5.07;;;;;;;27.06;80.15;98664.78;4481026;31;20100;-67
2023/07/05 08:19:03;;;;;;;13.82;6.43;;;;;;;27.24;78.49;98665.56;4479714;31;20099;-67
2023/07/05 08:21:32;;;;;;;10.30;5.07;;;;;;;27.18;71.76;98661.97;4482921;31;20167;-67
2023/07/05 08:24:00;;;;;;;8.95;5.05;;;;;;;27.03;74.04;98662.59;4483232;31;20119;-67
2023/07/05 08:26:49;;;;;;;14.13;5.18;;;;;;;27.11;79.00;98661.34;4481528;31;20100;-67
2023/07/05 08:29:16;;;;;;;10.05;5.28;;;;;;;27.47;78.28;98664.53;4481147;31;20160;-67
2023/07/05 08:31:46;;;;;;;9.82;5.65;;;;;;;27.71;76.30;98664.28;4481583;31;20104;-67
2023/07/05 08:34:14;;;;;;;12.57;6.22;;;;;;;27.75;79.49;98666.22;4481487;31;20167;-67
2023/07/05 08:36:43;;;;;;;11.35;5.35;;;;;;;28.13;78.67;98663.66;4483084;31;20359;-67
2023/07/05 08:39:12;;;;;;;10.55;5.70;;;;;;;28.08;71.81;98669.00;4483398;31;20116;-67
2023/07/05 08:41:41;;;;;;;14.07;5.78;;;;;;;28.22;72.10;98664.00;4483830;31;20112;-67
2023/07/05 08:44:21;;;;;;;9.68;5.90;;;;;;;28.13;73.52;98677.13;4483250;32;20141;-67
2023/07/05 08:46:55;;;;;;;14.45;5.75;;;;;;;28.13;76.40;98672.56;4481105;31;20114;-67
2023/07/05 08:49:26;;;;;;;9.00;5.78;;;;;;;28.25;76.57;98671.56;4481853;31;20408;-67
2023/07/05 08:51:56;;;;;;;11.18;6.93;;;;;;;28.18;74.97;98673.66;4483912;31;20158;-67
2023/07/05 08:54:32;;;;;;;9.85;5.82;;;;;;;28.30;73.10;98677.03;4483975;31;20096;-67
2023/07/05 08:57:10;;;;;;;12.40;6.00;;;;;;;28.51;72.71;98678.03;4480885;31;20100;-67
2023/07/05 08:59:47;;;;;;;12.90;5.78;;;;;;;28.73;70.47;98669.84;4467041;31;20554;-67
2023/07/05 09:02:19;;;;;;;11.82;5.85;;;;;;;28.18;69.42;98671.78;4481343;31;20180;-67
2023/07/05 09:04:49;;;;;;;8.93;6.10;;;;;;;27.90;74.66;98672.81;4482322;32;20159;-67
2023/07/05 09:07:31;;;;;;;8.30;5.32;;;;;;;28.13;71.74;98671.72;4483641;31;20140;-67
2023/07/05 09:10:37;;;;;;;9.90;5.82;;;;;;;28.45;70.00;98668.25;4482725;31;20148;-67
2023/07/05 09:13:14;;;;;;;9.32;5.75;;;;;;;28.97;65.03;98675.69;4430573;32;20145;-67
2023/07/05 09:15:47;;;;;;;13.02;5.87;;;;;;;29.19;66.21;98664.75;4431056;32;20129;-67
2023/07/05 09:18:52;;;;;;;12.88;6.05;;;;;;;28.72;64.09;98662.84;4418363;32;20093;-66
2023/07/05 09:21:44;;;;;;;8.07;4.80;;;;;;;28.61;64.04;98663.84;4419677;32;20137;-67
2023/07/05 09:24:29;;;;;;;8.70;5.50;;;;;;;28.35;62.35;98666.28;4429672;32;20218;-67
2023/07/05 09:27:17;;;;;;;11.25;6.47;;;;;;;28.49;61.61;98664.81;4419737;32;20124;-67
2023/07/05 09:29:55;;;;;;;13.30;5.75;;;;;;;28.46;64.74;98659.94;4432691;32;20120;-67
2023/07/05 09:32:36;;;;;;;7.57;5.03;;;;;;;28.75;62.50;98662.34;4423663;32;20153;-67
2023/07/05 09:35:10;;;;;;;10.07;5.62;;;;;;;28.70;64.41;98659.59;4412757;32;20463;-66
2023/07/05 09:37:39;;;;;;;9.27;5.37;;;;;;;28.75;61.90;98661.50;4412845;32;20100;-67
2023/07/05 09:40:11;;;;;;;12.05;5.22;;;;;;;29.19;61.81;98648.56;4412037;32;20304;-67
2023/07/05 09:42:45;;;;;;;8.73;5.00;;;;;;;29.65;62.92;98649.88;4429991;32;20609;-67
2023/07/05 09:45:14;;;;;;;12.85;5.95;;;;;;;29.89;57.22;98647.53;4420784;32;20121;-67
2023/07/05 09:47:44;;;;;;;9.52;5.65;;;;;;;29.77;55.00;98647.72;4454637;31;20869;-67
2023/07/05 09:50:16;;;;;;;9.93;4.90;;;;;;;29.18;57.87;98638.84;4473225;31;20152;-65
2023/07/05 09:52:48;;;;;;;7.37;5.07;;;;;;;29.47;60.52;98646.56;4489780;31;20454;-68
2023/07/05 09:55:17;;;;;;;8.50;5.60;;;;;;;29.44;58.12;98641.69;4494545;31;20544;-67
2023/07/05 09:57:47;;;;;;;10.45;5.57;;;;;;;29.35;57.53;98646.75;4476999;31;20153;-67
2023/07/05 10:00:23;;;;;;;7.70;5.15;;;;;;;29.19;58.25;98635.06;4470073;32;20099;-67
2023/07/05 10:02:54;;;;;;;11.65;5.72;;;;;;;29.44;60.37;98636.28;4469401;32;20548;-67
2023/07/05 10:05:28;;;;;;;11.48;5.30;;;;;;;29.48;62.14;98642.78;4484958;31;20119;-67
2023/07/05 10:07:59;;;;;;;11.95;5.00;;;;;;;30.22;56.66;98648.09;4501889;31;20106;-67
2023/07/05 10:10:34;;;;;;;10.80;5.45;;;;;;;30.07;54.29;98644.31;4501233;31;20073;-67
2023/07/05 10:13:14;;;;;;;12.60;6.72;;;;;;;29.72;54.77;98642.31;4499022;31;20103;-67
2023/07/05 10:15:50;;;;;;;9.00;5.62;;;;;;;28.72;58.61;98646.69;4490636;31;20113;-67
2023/07/05 10:18:32;;;;;;;14.40;5.78;;;;;;;28.40;57.34;98639.38;4499224;31;20354;-67
2023/07/05 10:21:17;;;;;;;11.75;6.18;;;;;;;28.27;60.10;98635.25;4499220;31;20096;-67
2023/07/05 10:23:49;;;;;;;17.80;5.62;;;;;;;27.76;60.15;98640.09;4495612;31;20463;-68
2023/07/05 10:26:17;;;;;;;13.75;5.78;;;;;;;27.29;65.74;98636.03;4484874;31;20766;-69
2023/07/05 10:28:46;;;;;;;10.32;5.75;;;;;;;27.48;66.03;98633.06;4482785;32;20159;-67
2023/07/05 10:31:33;;;;;;;7.70;5.35;;;;;;;28.14;62.88;98630.28;4484030;31;20131;-66
2023/07/05 10:34:17;;;;;;;9.70;5.75;;;;;;;28.50;62.82;98636.75;4485007;31;20107;-66
2023/07/05 10:36:46;;;;;;;11.00;5.93;;;;;;;28.21;59.31;98627.38;4472826;32;20096;-67
2023/07/05 10:39:17;;;;;;;11.35;5.40;;;;;;;27.90;61.90;98622.47;4467664;32;20610;-68
2023/07/05 10:41:48;;;;;;;10.70;5.68;;;;;;;27.90;59.18;98629.75;4466510;32;20146;-67
2023/07/05 10:45:04;;;;;;;9.27;5.60;;;;;;;28.29;63.50;98630.41;4467798;32;20222;-67
2023/07/05 10:47:33;;;;;;;14.80;5.80;;;;;;;28.66;58.73;98628.81;4403388;32;20521;-68
2023/07/05 10:50:05;;;;;;;10.40;6.05;;;;;;;29.48;54.29;98623.88;4390816;32;20121;-68
2023/07/05 10:52:46;;;;;;;10.70;5.72;;;;;;;29.22;53.32;98622.16;4404588;32;20167;-68
2023/07/05 10:55:19;;;;;;;11.95;7.15;;;;;;;29.58;57.30;98619.59;4390460;32;20471;-67
2023/07/05 10:57:59;;;;;;;11.70;6.15;;;;;;;29.71;52.83;98619.09;4390390;32;20160;-67
2023/07/05 11:00:50;;;;;;;13.02;6.28;;;;;;;29.85;53.63;98617.53;4396426;32;20128;-68
2023/07/05 11:03:25;;;;;;;10.13;6.18;;;;;;;29.91;56.78;98613.75;4390486;32;20213;-68
2023/07/05 11:06:03;;;;;;;12.37;5.90;;;;;;;29.80;55.13;98614.78;4390001;32;20451;-67
2023/07/05 11:08:41;;;;;;;10.30;5.97;;;;;;;29.54;56.91;98606.63;4389544;32;20110;-67
2023/07/05 11:11:20;;;;;;;10.02;6.15;;;;;;;30.00;57.25;98610.53;4389042;32;20161;-67
2023/07/05 11:13:48;;;;;;;10.93;6.72;;;;;;;30.35;53.23;98607.03;4401622;32;20097;-67
2023/07/05 11:16:21;;;;;;;12.27;6.75;;;;;;;30.71;51.72;98596.19;4401321;32;20129;-68
2023/07/05 11:18:52;;;;;;;10.02;6.03;;;;;;;31.01;53.37;98599.94;4419805;32;20551;-67
2023/07/05 11:21:55;;;;;;;8.80;6.12;;;;;;;31.35;52.65;98601.16;4419984;32;20093;-67
2023/07/05 11:24:31;;;;;;;9.68;6.22;;;;;;;31.45;47.91;98598.41;4413644;32;20179;-68
2023/07/05 11:27:00;;;;;;;13.48;7.03;;;;;;;30.97;55.12;98591.50;4433217;32;20170;-68
2023/07/05 11:29:49;;;;;;;12.55;6.82;;;;;;;30.54;55.30;98588.38;4433312;32;20133;-68
2023/07/05 11:32:16;;;;;;;8.75;6.60;;;;;;;30.48;58.46;98592.19;4433676;32;20637;-68
2023/07/05 11:34:46;;;;;;;9.95;6.12;;;;;;;31.29;52.88;98593.03;4433149;32;20117;-68
2023/07/05 11:37:13;;;;;;;9.32;5.68;;;;;;;31.55;49.42;98587.53;4433460;32;20513;-68
2023/07/05 11:39:48;;;;;;;8.82;5.45;;;;;;;31.54;51.70;98593.19;4433428;32;20105;-68
2023/07/05 11:42:16;;;;;;;9.65;5.68;;;;;;;31.44;48.52;98594.06;4433446;32;20522;-68
2023/07/05 11:45:05;;;;;;;8.43;5.90;;;;;;;31.48;52.18;98582.41;4434868;32;20089;-68